Time;durP1;ratioP1;P1;durP2;ratioP2;P2;SDS_P1;SDS_P2;PMS_P1;PMS_P2;Temp;Humidity;BMP_temperature;BMP_pressure;BME280_temperature;BME280_humidity;BME280_pressure;Samples;Min_cycle;Max_cycle;Signal;HPM_P1;HPM_P2
2022/07/09 00:01:32;;;;;;;2.92;2.72;;;;;;;18.09;79.40;99695.70;1675199;85;21019;-72
2022/07/09 00:03:59;;;;;;;3.50;3.20;;;;;;;18.10;79.41;99691.33;1675217;85;21130;-70
2022/07/09 00:06:26;;;;;;;3.08;2.75;;;;;;;18.13;79.35;99692.08;1675160;85;21079;-71
2022/07/09 00:08:53;;;;;;;3.17;2.70;;;;;;;18.14;79.27;99692.34;1656927;84;21067;-70
2022/07/09 00:11:20;;;;;;;4.03;2.90;;;;;;;18.13;79.28;99686.64;1674959;85;21051;-70
2022/07/09 00:13:46;;;;;;;3.02;2.55;;;;;;;18.13;79.19;99683.91;1674898;85;21015;-69
2022/07/09 00:16:13;;;;;;;3.58;2.45;;;;;;;18.12;79.23;99676.88;1675185;85;21243;-71
2022/07/09 00:18:41;;;;;;;3.00;2.80;;;;;;;18.10;79.37;99685.07;1675361;85;20920;-71
2022/07/09 00:21:08;;;;;;;3.60;3.30;;;;;;;18.08;79.48;99679.14;1673377;85;21325;-70
2022/07/09 00:23:35;;;;;;;5.67;2.85;;;;;;;18.06;79.52;99687.59;1660144;85;21057;-70
2022/07/09 00:26:02;;;;;;;5.20;3.02;;;;;;;18.05;79.71;99671.55;1661454;85;21534;-70
2022/07/09 00:28:29;;;;;;;2.50;2.40;;;;;;;18.03;79.96;99665.62;1685919;83;21141;-71
2022/07/09 00:30:55;;;;;;;3.00;2.80;;;;;;;18.02;80.05;99666.17;1703195;82;21119;-71
2022/07/09 00:33:23;;;;;;;2.77;2.58;;;;;;;18.02;80.11;99659.36;1686062;85;21017;-70
2022/07/09 00:35:49;;;;;;;12.37;3.12;;;;;;;18.05;80.20;99664.75;1702530;82;20972;-73
2022/07/09 00:38:17;;;;;;;2.85;2.65;;;;;;;18.03;80.20;99659.63;1706887;83;21036;-73
2022/07/09 00:40:43;;;;;;;2.98;2.55;;;;;;;18.03;80.24;99656.09;1717570;82;21212;-73
2022/07/09 00:43:18;;;;;;;4.10;2.95;;;;;;;18.04;80.25;99660.41;1717406;83;21063;-73
2022/07/09 00:45:46;;;;;;;2.98;2.77;;;;;;;18.05;80.24;99663.39;1706106;83;21086;-74
2022/07/09 00:48:13;;;;;;;2.77;2.37;;;;;;;18.04;80.29;99653.59;1686619;83;21108;-73
2022/07/09 00:50:42;;;;;;;3.20;2.90;;;;;;;18.05;80.30;99661.48;1697795;83;21513;-74
2022/07/09 00:53:09;;;;;;;3.08;2.80;;;;;;;18.08;80.22;99662.80;1696483;84;21052;-73
2022/07/09 00:55:37;;;;;;;3.15;2.85;;;;;;;18.07;80.18;99667.44;1703863;83;21028;-74
2022/07/09 00:58:04;;;;;;;3.60;3.10;;;;;;;18.04;80.17;99668.02;1691171;84;21016;-71
2022/07/09 01:00:30;;;;;;;4.33;2.87;;;;;;;18.01;80.22;99656.38;1698624;84;21129;-73
2022/07/09 01:02:57;;;;;;;4.37;2.83;;;;;;;18.02;80.26;99666.17;1697642;83;21568;-74
2022/07/09 01:05:26;;;;;;;5.83;2.83;;;;;;;18.02;80.15;99654.47;1676093;84;21249;-74
2022/07/09 01:07:53;;;;;;;2.90;2.70;;;;;;;18.03;80.05;99661.53;1669635;84;20980;-73
2022/07/09 01:10:20;;;;;;;2.92;2.72;;;;;;;18.05;79.93;99662.84;1697399;84;21024;-76
2022/07/09 01:12:47;;;;;;;3.55;3.22;;;;;;;18.03;79.85;99663.70;1696679;84;21067;-73
2022/07/09 01:15:14;;;;;;;3.17;2.80;;;;;;;18.04;79.84;99667.20;1696118;84;21030;-74
2022/07/09 01:17:42;;;;;;;2.98;2.22;;;;;;;18.05;79.75;99677.81;1695154;83;21150;-74
2022/07/09 01:20:10;;;;;;;2.72;2.40;;;;;;;18.03;79.58;99666.43;1694244;84;21225;-74
2022/07/09 01:22:38;;;;;;;3.33;2.58;;;;;;;18.06;79.51;99660.38;1677014;84;22368;-74
2022/07/09 01:25:09;;;;;;;3.20;2.80;;;;;;;18.07;79.34;99652.47;1697504;83;21481;-74
2022/07/09 01:27:38;;;;;;;3.08;2.60;;;;;;;18.07;79.13;99648.94;1668957;84;21063;-74
2022/07/09 01:30:06;;;;;;;3.02;2.77;;;;;;;18.07;78.95;99649.75;1670870;85;21219;-75
2022/07/09 01:32:33;;;;;;;6.45;3.10;;;;;;;18.09;78.86;99657.05;1668191;85;21059;-74
2022/07/09 01:35:00;;;;;;;3.37;3.05;;;;;;;18.09;78.67;99665.76;1667923;85;20961;-73
2022/07/09 01:37:27;;;;;;;3.20;2.70;;;;;;;18.08;78.67;99670.39;1696563;84;21076;-77
2022/07/09 01:39:53;;;;;;;2.45;2.35;;;;;;;18.09;78.48;99671.20;1698982;84;21083;-74
2022/07/09 01:42:21;;;;;;;4.00;2.67;;;;;;;18.08;78.48;99656.78;1680712;84;21196;-78
2022/07/09 01:44:49;;;;;;;2.92;2.62;;;;;;;18.09;78.35;99648.88;1681984;84;21084;-74
2022/07/09 01:47:15;;;;;;;3.47;2.65;;;;;;;18.09;78.19;99637.98;1655063;86;21102;-73
2022/07/09 01:49:42;;;;;;;3.12;2.90;;;;;;;18.08;78.01;99645.12;1672397;85;21242;-74
2022/07/09 01:52:09;;;;;;;4.35;2.33;;;;;;;18.10;77.89;99638.80;1676355;85;21055;-74
2022/07/09 01:54:36;;;;;;;3.30;3.00;;;;;;;18.12;77.39;99638.77;1693182;84;21102;-74
2022/07/09 01:57:03;;;;;;;3.20;2.55;;;;;;;18.12;77.29;99628.43;1683845;84;20973;-74
2022/07/09 01:59:30;;;;;;;5.22;2.92;;;;;;;18.15;77.03;99634.08;1710558;83;21027;-75
2022/07/09 02:01:58;;;;;;;3.15;2.85;;;;;;;18.17;77.05;99625.06;1710490;83;21028;-73
2022/07/09 02:04:24;;;;;;;4.55;2.65;;;;;;;18.20;76.83;99629.08;1711079;82;21532;-72
2022/07/09 02:06:51;;;;;;;2.83;2.65;;;;;;;18.21;76.70;99630.16;1696888;83;21295;-74
2022/07/09 02:09:18;;;;;;;2.45;2.17;;;;;;;18.16;76.87;99624.80;1710667;83;20983;-73
2022/07/09 02:11:47;;;;;;;2.77;2.50;;;;;;;18.14;76.88;99624.28;1697293;83;20989;-74
2022/07/09 02:14:14;;;;;;;3.08;2.83;;;;;;;18.19;76.81;99634.27;1694828;82;21027;-74
2022/07/09 02:16:41;;;;;;;2.80;2.60;;;;;;;18.18;76.85;99642.17;1665108;85;21051;-73
2022/07/09 02:19:08;;;;;;;2.65;2.47;;;;;;;18.16;76.82;99646.58;1679963;85;21080;-73
2022/07/09 02:21:36;;;;;;;3.22;2.72;;;;;;;18.20;76.72;99645.42;1697453;84;21090;-73
2022/07/09 02:24:03;;;;;;;6.53;2.35;;;;;;;18.22;76.60;99647.30;1710507;82;21453;-73
2022/07/09 02:26:29;;;;;;;6.05;2.05;;;;;;;18.21;76.43;99647.04;1659439;84;21044;-74
2022/07/09 02:28:57;;;;;;;4.10;3.08;;;;;;;18.20;76.42;99650.31;1696101;84;21021;-72
2022/07/09 02:31:25;;;;;;;2.55;2.45;;;;;;;18.22;76.45;99663.05;1710318;83;21264;-73
2022/07/09 02:33:52;;;;;;;3.92;2.58;;;;;;;18.25;76.36;99661.11;1710246;82;20979;-73
2022/07/09 02:36:19;;;;;;;2.75;2.55;;;;;;;18.29;76.25;99683.09;1708442;83;20928;-72
2022/07/09 02:38:46;;;;;;;2.87;2.67;;;;;;;18.34;76.15;99689.00;1708860;83;21099;-73
2022/07/09 02:41:13;;;;;;;3.60;2.85;;;;;;;18.38;76.09;99700.89;1710468;83;21477;-71
2022/07/09 02:43:43;;;;;;;3.50;3.22;;;;;;;18.41;75.99;99712.02;1694307;83;21155;-72
2022/07/09 02:46:11;;;;;;;2.70;2.50;;;;;;;18.45;75.84;99728.55;1681653;83;21039;-73
2022/07/09 02:48:39;;;;;;;4.22;2.55;;;;;;;18.46;75.74;99754.69;1697591;84;20946;-72
2022/07/09 02:51:06;;;;;;;2.87;2.67;;;;;;;18.47;75.77;99757.64;1705475;83;20984;-72
2022/07/09 02:53:33;;;;;;;5.28;2.40;;;;;;;18.48;75.75;99764.16;1687715;84;21053;-72
2022/07/09 02:56:00;;;;;;;4.00;2.95;;;;;;;18.53;75.47;99756.45;1688044;83;21247;-73
2022/07/09 02:58:27;;;;;;;2.42;2.33;;;;;;;18.56;75.28;99759.98;1703488;84;21016;-72
2022/07/09 03:00:55;;;;;;;3.70;2.75;;;;;;;18.61;74.90;99768.84;1688030;84;21537;-72
2022/07/09 03:03:23;;;;;;;4.87;2.72;;;;;;;18.64;74.81;99781.89;1703516;82;21043;-74
2022/07/09 03:05:50;;;;;;;3.08;2.77;;;;;;;18.63;75.10;99794.44;1689006;83;21068;-74
2022/07/09 03:08:17;;;;;;;2.52;2.30;;;;;;;18.58;75.66;99802.70;1703462;82;22091;-72
2022/07/09 03:10:44;;;;;;;3.55;3.25;;;;;;;18.54;75.91;99797.60;1687970;84;21020;-73
2022/07/09 03:13:13;;;;;;;3.10;2.80;;;;;;;18.51;76.27;99792.73;1703431;82;20968;-72
2022/07/09 03:15:39;;;;;;;2.62;2.42;;;;;;;18.48;76.31;99791.41;1686687;84;21045;-72
2022/07/09 03:18:09;;;;;;;3.52;2.80;;;;;;;18.52;76.35;99797.05;1687330;84;21006;-72
2022/07/09 03:20:36;;;;;;;2.70;2.50;;;;;;;18.57;76.25;99808.70;1680306;83;21059;-73
2022/07/09 03:23:05;;;;;;;8.60;7.80;;;;;;;18.62;76.19;99809.97;1646434;85;20984;-73
2022/07/09 03:25:32;;;;;;;5.50;3.20;;;;;;;18.65;76.08;99810.76;1688134;84;21018;-71
2022/07/09 03:27:59;;;;;;;5.10;3.20;;;;;;;18.64;76.01;99812.41;1703624;82;21049;-73
2022/07/09 03:30:26;;;;;;;3.35;2.92;;;;;;;18.66;76.02;99816.44;1687956;84;21128;-73
2022/07/09 03:32:53;;;;;;;7.62;3.52;;;;;;;18.70;75.99;99812.00;1689647;84;21176;-73
2022/07/09 03:35:19;;;;;;;5.70;3.02;;;;;;;18.71;76.05;99803.27;1686783;84;20946;-73
2022/07/09 03:37:48;;;;;;;2.98;2.52;;;;;;;18.75;76.03;99806.23;1703992;82;20985;-73
2022/07/09 03:40:15;;;;;;;3.60;2.87;;;;;;;18.80;75.73;99811.58;1703445;83;21543;-72
2022/07/09 03:42:44;;;;;;;2.77;2.58;;;;;;;18.81;75.58;99815.34;1688132;85;21076;-75
2022/07/09 03:45:11;;;;;;;3.60;3.15;;;;;;;18.81;75.47;99815.34;1702733;82;21315;-73
2022/07/09 03:47:37;;;;;;;7.03;3.47;;;;;;;18.80;75.51;99817.03;1687811;83;20946;-74
2022/07/09 03:50:07;;;;;;;3.52;3.22;;;;;;;18.73;75.81;99818.78;1703525;83;21178;-74
2022/07/09 03:52:34;;;;;;;3.72;2.80;;;;;;;18.66;76.10;99819.71;1688041;84;20969;-74
2022/07/09 03:55:01;;;;;;;2.90;2.30;;;;;;;18.60;76.53;99814.93;1702753;82;21528;-74
2022/07/09 03:57:27;;;;;;;3.22;3.02;;;;;;;18.58;76.98;99815.77;1687657;83;21211;-74
2022/07/09 03:59:54;;;;;;;3.17;2.95;;;;;;;18.57;77.12;99818.78;1703489;83;21502;-74
2022/07/09 04:02:21;;;;;;;4.12;2.87;;;;;;;18.55;77.75;99818.30;1688134;85;21048;-74
2022/07/09 04:04:48;;;;;;;6.42;3.62;;;;;;;18.53;77.99;99816.38;1702938;82;21098;-74
2022/07/09 04:07:15;;;;;;;4.35;3.27;;;;;;;18.54;78.27;99818.03;1687598;83;21060;-74
2022/07/09 04:09:42;;;;;;;4.85;3.42;;;;;;;18.58;78.51;99816.32;1703504;83;21055;-75
2022/07/09 04:12:09;;;;;;;4.60;3.15;;;;;;;18.62;78.81;99816.78;1687981;84;21514;-75
2022/07/09 04:14:37;;;;;;;3.67;3.35;;;;;;;18.66;79.16;99823.80;1703052;82;20905;-73
2022/07/09 04:17:05;;;;;;;4.70;3.35;;;;;;;18.66;79.36;99821.08;1687464;83;21633;-75
2022/07/09 04:19:32;;;;;;;4.25;3.95;;;;;;;18.66;79.57;99823.80;1689258;84;21052;-75
2022/07/09 04:21:59;;;;;;;4.15;3.75;;;;;;;18.64;79.85;99821.95;1688039;84;21309;-75
2022/07/09 04:24:27;;;;;;;8.10;3.40;;;;;;;18.65;80.14;99825.74;1703436;83;21553;-74
2022/07/09 04:26:53;;;;;;;4.25;2.67;;;;;;;18.63;80.26;99822.49;1711896;83;20979;-76
2022/07/09 04:29:20;;;;;;;3.58;3.15;;;;;;;18.63;80.64;99816.23;1688194;85;21111;-74
2022/07/09 04:31:47;;;;;;;9.50;4.42;;;;;;;18.65;80.98;99819.48;1703792;84;20992;-76
2022/07/09 04:34:13;;;;;;;4.25;3.85;;;;;;;18.62;81.38;99818.70;1700526;82;21482;-75
2022/07/09 04:36:40;;;;;;;3.92;3.52;;;;;;;18.54;81.98;99814.76;1703259;83;21048;-76
2022/07/09 04:39:09;;;;;;;5.10;3.05;;;;;;;18.47;82.62;99810.76;1703642;83;21480;-74
2022/07/09 04:41:36;;;;;;;4.53;3.77;;;;;;;18.42;84.17;99806.75;1703564;84;21036;-75
2022/07/09 04:44:04;;;;;;;5.37;3.47;;;;;;;18.32;84.88;99805.59;1703503;82;21067;-73
2022/07/09 04:46:32;;;;;;;6.00;4.08;;;;;;;18.23;85.30;99799.45;1684090;84;21241;-73
2022/07/09 04:48:59;;;;;;;5.47;3.40;;;;;;;18.22;85.83;99794.31;1718108;83;21077;-73
2022/07/09 04:51:27;;;;;;;4.42;4.03;;;;;;;18.24;86.13;99790.73;1703362;82;21086;-72
2022/07/09 04:53:55;;;;;;;4.97;3.83;;;;;;;18.21;86.73;99788.06;1680171;83;21118;-75
2022/07/09 04:56:23;;;;;;;4.53;3.37;;;;;;;18.13;87.25;99783.27;1681222;84;21057;-76
2022/07/09 04:58:53;;;;;;;4.42;3.27;;;;;;;18.13;87.80;99772.39;1691735;83;21140;-75
2022/07/09 05:01:23;;;;;;;4.28;3.87;;;;;;;18.11;88.12;99775.97;1690192;83;21045;-74
2022/07/09 05:03:49;;;;;;;5.95;4.17;;;;;;;18.11;88.78;99774.61;1688945;83;21493;-75
2022/07/09 05:06:17;;;;;;;5.92;4.20;;;;;;;18.18;90.48;99772.84;1688090;84;21042;-78
2022/07/09 05:08:45;;;;;;;11.75;6.25;;;;;;;18.26;91.52;99768.11;1691654;84;21013;-77
2022/07/09 05:11:12;;;;;;;5.20;4.35;;;;;;;18.33;91.66;99760.34;1690298;84;21255;-72
2022/07/09 05:13:40;;;;;;;4.25;3.85;;;;;;;18.35;91.94;99758.14;1689809;83;21031;-74
2022/07/09 05:16:07;;;;;;;6.17;4.15;;;;;;;18.34;92.35;99758.44;1687377;84;20974;-74
2022/07/09 05:18:35;;;;;;;4.58;3.45;;;;;;;18.26;92.27;99759.94;1686478;85;21081;-78
2022/07/09 05:21:02;;;;;;;11.25;3.98;;;;;;;18.16;92.54;99755.47;1674371;85;21527;-73
2022/07/09 05:23:29;;;;;;;8.65;4.15;;;;;;;18.11;93.40;99750.12;1674286;84;22157;-74
2022/07/09 05:25:57;;;;;;;4.67;3.98;;;;;;;18.08;94.04;99745.25;1688088;83;20973;-72
2022/07/09 05:28:24;;;;;;;9.18;3.80;;;;;;;18.09;94.69;99743.34;1687943;84;21621;-74
2022/07/09 05:30:53;;;;;;;5.97;5.00;;;;;;;18.09;94.87;99739.25;1689361;83;21052;-74
2022/07/09 05:33:20;;;;;;;6.55;4.12;;;;;;;18.08;94.72;99739.02;1686624;85;21014;-74
2022/07/09 05:35:47;;;;;;;5.15;3.87;;;;;;;18.01;94.22;99735.31;1689427;83;21063;-73
2022/07/09 05:38:13;;;;;;;6.90;3.72;;;;;;;17.93;94.24;99721.58;1648475;86;21040;-73
2022/07/09 05:40:40;;;;;;;3.80;3.45;;;;;;;17.85;94.34;99720.33;1687953;84;21025;-71
2022/07/09 05:43:06;;;;;;;5.90;3.62;;;;;;;17.78;94.68;99715.83;1659873;85;21012;-73
2022/07/09 05:45:35;;;;;;;6.40;3.90;;;;;;;17.67;94.92;99702.94;1659265;86;21056;-75
2022/07/09 05:48:03;;;;;;;5.30;4.22;;;;;;;17.58;95.49;99697.07;1690454;84;21544;-76
2022/07/09 05:50:30;;;;;;;4.15;3.75;;;;;;;17.54;95.46;99682.45;1691631;82;21550;-74
2022/07/09 05:52:56;;;;;;;3.22;3.00;;;;;;;17.45;96.38;99672.80;1688188;84;21077;-74
2022/07/09 05:55:23;;;;;;;4.58;3.60;;;;;;;17.40;96.68;99658.73;1689164;83;20997;-74
2022/07/09 05:57:50;;;;;;;11.40;4.58;;;;;;;17.36;97.24;99643.30;1688338;85;21032;-75
2022/07/09 06:00:18;;;;;;;3.70;3.37;;;;;;;17.24;97.97;99631.52;1649027;86;21166;-78
2022/07/09 06:02:45;;;;;;;7.00;4.15;;;;;;;17.20;98.68;99597.87;1687992;83;21082;-76
2022/07/09 06:05:11;;;;;;;3.92;3.15;;;;;;;17.15;99.12;99597.95;1688857;83;20949;-76
2022/07/09 06:07:44;;;;;;;3.22;3.00;;;;;;;17.14;99.50;99596.33;1688083;84;21088;-76
2022/07/09 06:10:09;;;;;;;4.15;3.70;;;;;;;17.14;99.78;99599.59;1689715;84;20989;-75
2022/07/09 06:12:39;;;;;;;3.98;3.05;;;;;;;17.13;99.69;99599.33;1678076;84;21124;-76
2022/07/09 06:15:09;;;;;;;4.65;3.30;;;;;;;17.12;99.48;99614.83;1688224;84;22381;-77
2022/07/09 06:17:37;;;;;;;4.62;3.15;;;;;;;17.14;99.35;99607.75;1690517;84;21045;-77
2022/07/09 06:20:06;;;;;;;5.70;3.72;;;;;;;17.17;99.15;99613.97;1688412;84;21005;-76
2022/07/09 06:22:33;;;;;;;4.95;3.45;;;;;;;17.16;98.47;99610.98;1690052;83;21013;-76
2022/07/09 06:25:03;;;;;;;3.40;3.10;;;;;;;17.18;98.25;99614.20;1685486;83;21892;-75
2022/07/09 06:27:31;;;;;;;5.35;4.30;;;;;;;17.19;98.45;99617.19;1689595;84;20976;-75
2022/07/09 06:29:58;;;;;;;4.65;4.15;;;;;;;17.18;98.58;99627.80;1689548;85;21009;-74
2022/07/09 06:32:25;;;;;;;3.50;3.20;;;;;;;17.18;98.41;99621.00;1690354;83;21040;-74
2022/07/09 06:34:54;;;;;;;3.10;2.77;;;;;;;17.13;98.19;99621.08;1686751;84;21560;-80
2022/07/09 06:37:29;;;;;;;6.00;3.95;;;;;;;17.15;97.96;99625.67;1676125;85;21123;-80
2022/07/09 06:39:57;;;;;;;4.08;3.08;;;;;;;17.05;97.01;99615.77;1673353;85;21077;-75
2022/07/09 06:42:24;;;;;;;6.22;3.75;;;;;;;17.05;96.57;99604.08;1676158;85;21549;-76
2022/07/09 06:44:52;;;;;;;4.72;3.12;;;;;;;17.02;96.86;99594.63;1686257;84;21041;-75
2022/07/09 06:47:20;;;;;;;3.52;3.22;;;;;;;16.98;97.25;99607.97;1660375;85;21072;-76
2022/07/09 06:49:46;;;;;;;3.90;3.42;;;;;;;16.97;97.76;99602.84;1688147;84;21226;-76
2022/07/09 06:52:13;;;;;;;3.35;3.00;;;;;;;16.98;98.06;99612.59;1695205;83;20991;-79
2022/07/09 06:54:40;;;;;;;4.25;3.10;;;;;;;17.00;97.94;99617.19;1668571;84;22261;-80
2022/07/09 06:57:09;;;;;;;4.40;3.85;;;;;;;17.02;99.13;99616.36;1691549;84;21073;-78
2022/07/09 06:59:36;;;;;;;4.45;4.05;;;;;;;17.03;99.10;99608.98;1699014;83;20936;-76
2022/07/09 07:02:04;;;;;;;3.12;2.92;;;;;;;16.98;100.00;99604.44;1693512;83;21241;-80
2022/07/09 07:04:31;;;;;;;5.47;3.12;;;;;;;16.98;100.00;99610.69;1697160;84;21060;-82
2022/07/09 07:06:57;;;;;;;10.18;3.75;;;;;;;17.00;100.00;99619.91;1700341;84;21017;-80
2022/07/09 07:09:24;;;;;;;3.00;2.80;;;;;;;17.07;99.81;99627.16;1698823;84;21024;-75
2022/07/09 07:11:54;;;;;;;4.70;3.50;;;;;;;17.16;99.61;99630.02;1696854;84;20957;-79
2022/07/09 07:14:21;;;;;;;5.85;3.58;;;;;;;17.21;99.63;99610.36;1695819;84;21159;-79
2022/07/09 07:16:50;;;;;;;8.63;3.22;;;;;;;17.25;99.57;99613.30;1691809;84;21068;-80
2022/07/09 07:19:17;;;;;;;4.33;3.77;;;;;;;17.26;99.78;99611.66;1697373;84;21025;-80
2022/07/09 07:21:44;;;;;;;5.28;4.28;;;;;;;17.23;100.00;99616.84;1698955;83;20972;-81
2022/07/09 07:24:11;;;;;;;4.15;3.85;;;;;;;17.21;100.00;99617.71;1697314;84;21096;-83
2022/07/09 07:26:38;;;;;;;7.85;3.58;;;;;;;17.19;100.00;99622.07;1698714;84;21070;-80
2022/07/09 07:29:05;;;;;;;5.55;3.70;;;;;;;17.21;100.00;99626.67;1702571;83;21016;-81
2022/07/09 07:31:32;;;;;;;9.48;3.80;;;;;;;17.19;100.00;99630.23;1695907;84;21543;-84
2022/07/09 07:34:00;;;;;;;3.45;3.15;;;;;;;17.21;100.00;99631.30;1693178;84;21570;-82
2022/07/09 07:36:27;;;;;;;3.92;3.25;;;;;;;17.21;100.00;99623.95;1697023;84;21021;-85
2022/07/09 07:38:54;;;;;;;4.08;3.62;;;;;;;17.19;100.00;99620.72;1698989;84;21048;-81
2022/07/09 07:41:21;;;;;;;4.53;3.83;;;;;;;17.17;100.00;99625.63;1698834;83;20948;-81
2022/07/09 07:43:48;;;;;;;5.53;4.47;;;;;;;17.17;100.00;99616.69;1694764;83;21062;-75
2022/07/09 07:46:15;;;;;;;4.03;3.20;;;;;;;17.15;100.00;99612.90;1678473;84;21559;-77
2022/07/09 07:48:42;;;;;;;3.33;3.02;;;;;;;17.14;100.00;99607.20;1669270;86;20980;-80
2022/07/09 07:51:11;;;;;;;8.15;3.55;;;;;;;17.14;100.00;99591.44;1689055;83;21342;-78
2022/07/09 07:53:37;;;;;;;4.45;3.27;;;;;;;17.14;100.00;99588.17;1659528;84;21077;-79
2022/07/09 07:56:07;;;;;;;4.67;3.80;;;;;;;17.13;100.00;99568.89;1641153;86;21599;-79
2022/07/09 07:58:33;;;;;;;3.50;3.17;;;;;;;17.08;100.00;99577.66;1635000;85;31570;-78
2022/07/09 08:01:02;;;;;;;11.63;3.90;;;;;;;17.03;100.00;99580.46;1669754;84;21050;-77
2022/07/09 08:03:29;;;;;;;5.00;3.85;;;;;;;16.97;100.00;99577.84;1657786;86;21279;-78
2022/07/09 08:05:56;;;;;;;3.98;3.45;;;;;;;16.97;100.00;99572.96;1645852;85;21035;-79
2022/07/09 08:08:22;;;;;;;3.52;2.90;;;;;;;17.00;100.00;99574.53;1650111;86;20968;-83
2022/07/09 08:10:49;;;;;;;6.17;3.58;;;;;;;17.02;100.00;99576.96;1639169;85;21076;-74
2022/07/09 08:13:17;;;;;;;5.87;3.85;;;;;;;17.05;100.00;99579.08;1655938;85;21095;-81
2022/07/09 08:15:45;;;;;;;4.58;3.33;;;;;;;17.11;100.00;99581.17;1657512;85;21199;-77
2022/07/09 08:18:14;;;;;;;4.42;3.62;;;;;;;17.15;100.00;99578.92;1652954;85;21046;-77
2022/07/09 08:20:41;;;;;;;3.55;3.25;;;;;;;17.18;100.00;99571.53;1653594;86;21131;-77
2022/07/09 08:23:08;;;;;;;5.78;3.27;;;;;;;17.20;100.00;99563.90;1651295;85;21096;-78
2022/07/09 08:25:36;;;;;;;3.33;3.08;;;;;;;17.24;100.00;99570.34;1633433;86;21075;-75
2022/07/09 08:28:05;;;;;;;3.40;3.10;;;;;;;17.30;100.00;99564.28;1636045;85;21205;-81
2022/07/09 08:30:32;;;;;;;4.22;3.33;;;;;;;17.30;100.00;99561.56;1649447;86;21039;-80
2022/07/09 08:32:59;;;;;;;3.62;3.30;;;;;;;17.29;100.00;99559.39;1655554;86;22200;-77
2022/07/09 08:35:25;;;;;;;3.80;2.42;;;;;;;17.29;100.00;99551.23;1657277;85;21060;-79
2022/07/09 08:37:53;;;;;;;3.52;3.08;;;;;;;17.31;100.00;99550.95;1657785;86;21103;-76
2022/07/09 08:40:21;;;;;;;3.17;2.90;;;;;;;17.33;100.00;99552.80;1657606;86;21274;-79
2022/07/09 08:42:50;;;;;;;2.95;2.60;;;;;;;17.36;100.00;99551.66;1656988;85;20972;-76
2022/07/09 08:45:18;;;;;;;3.30;3.00;;;;;;;17.41;100.00;99557.00;1655783;85;21088;-77
2022/07/09 08:47:45;;;;;;;6.50;3.95;;;;;;;17.49;100.00;99554.72;1656491;85;21226;-71
2022/07/09 08:50:12;;;;;;;6.30;3.55;;;;;;;17.50;100.00;99557.15;1657896;85;21041;-76
2022/07/09 08:52:40;;;;;;;3.85;3.45;;;;;;;17.53;100.00;99559.27;1674822;84;21078;-80
2022/07/09 08:55:08;;;;;;;6.30;4.37;;;;;;;17.55;100.00;99549.45;1684482;83;20953;-77
2022/07/09 08:57:35;;;;;;;3.42;3.15;;;;;;;17.58;100.00;99562.44;1662003;84;21556;-77
2022/07/09 09:00:05;;;;;;;4.05;3.50;;;;;;;17.63;100.00;99557.76;1701874;84;21049;-79
2022/07/09 09:02:39;;;;;;;3.92;3.52;;;;;;;17.64;100.00;99563.45;1703307;84;21110;-72
2022/07/09 09:05:15;;;;;;;4.03;2.85;;;;;;;17.68;100.00;99566.37;1698749;84;21107;-78
2022/07/09 09:07:43;;;;;;;3.42;3.12;;;;;;;17.70;100.00;99570.95;1695874;84;21108;-76
2022/07/09 09:10:24;;;;;;;3.55;3.25;;;;;;;17.76;100.00;99583.36;1696495;84;21037;-77
2022/07/09 09:13:00;;;;;;;7.22;3.30;;;;;;;17.77;100.00;99581.71;1693906;83;21035;-75
2022/07/09 09:15:28;;;;;;;4.75;3.22;;;;;;;17.79;100.00;99579.48;1697009;83;21068;-83
2022/07/09 09:17:54;;;;;;;5.10;2.90;;;;;;;17.82;100.00;99569.92;1698718;83;21203;-79
2022/07/09 09:20:24;;;;;;;5.30;4.28;;;;;;;17.84;100.00;99560.34;1696016;84;20957;-79
2022/07/09 09:22:54;;;;;;;5.37;4.87;;;;;;;17.82;100.00;99555.77;1695626;84;21542;-80
2022/07/09 09:25:21;;;;;;;6.37;5.47;;;;;;;17.80;100.00;99551.17;1668910;86;21780;-80
2022/07/09 09:27:57;;;;;;;3.42;2.67;;;;;;;17.76;100.00;99553.44;1696522;84;21058;-79
2022/07/09 09:30:26;;;;;;;5.15;2.60;;;;;;;17.68;100.00;99548.15;1695840;84;21151;-79
2022/07/09 09:33:03;;;;;;;3.52;3.22;;;;;;;17.69;100.00;99549.77;1695813;84;21574;-77
2022/07/09 09:35:33;;;;;;;3.42;2.92;;;;;;;17.72;100.00;99555.95;1669103;86;21068;-74
2022/07/09 09:37:59;;;;;;;6.33;3.75;;;;;;;17.76;100.00;99548.80;1678934;84;21041;-74
2022/07/09 09:40:27;;;;;;;3.95;2.90;;;;;;;17.83;100.00;99547.06;1683685;84;21016;-77
2022/07/09 09:42:54;;;;;;;3.20;2.80;;;;;;;17.88;100.00;99548.33;1678564;83;21225;-74
2022/07/09 09:45:22;;;;;;;4.10;3.00;;;;;;;17.93;100.00;99545.52;1697612;84;21028;-77
2022/07/09 09:47:50;;;;;;;3.15;2.92;;;;;;;17.97;100.00;99526.10;1698827;84;20964;-79
2022/07/09 09:50:19;;;;;;;4.72;3.00;;;;;;;17.98;100.00;99510.03;1696468;84;21143;-76
2022/07/09 09:52:47;;;;;;;4.17;3.25;;;;;;;17.93;100.00;99493.00;1676970;84;21043;-75
2022/07/09 09:55:15;;;;;;;4.42;3.62;;;;;;;17.91;100.00;99489.21;1662286;85;21838;-76
2022/07/09 09:57:42;;;;;;;5.85;2.70;;;;;;;17.87;100.00;99489.56;1697948;84;20914;-78
2022/07/09 10:00:12;;;;;;;3.37;3.08;;;;;;;17.86;100.00;99472.98;1695689;83;21065;-78
2022/07/09 10:02:46;;;;;;;2.85;2.65;;;;;;;17.83;100.00;99479.85;1685957;84;21574;-76
2022/07/09 10:05:16;;;;;;;5.90;2.83;;;;;;;17.81;100.00;99468.45;1705853;84;21010;-78
2022/07/09 10:07:44;;;;;;;4.10;3.70;;;;;;;17.83;100.00;99475.77;1710570;83;21042;-76
2022/07/09 10:10:20;;;;;;;3.30;3.00;;;;;;;17.89;100.00;99477.03;1697433;84;20945;-78
2022/07/09 10:12:47;;;;;;;3.15;2.95;;;;;;;17.90;100.00;99478.06;1696882;84;21061;-76
2022/07/09 10:15:26;;;;;;;3.42;2.80;;;;;;;17.92;100.00;99475.86;1697285;84;21523;-77
2022/07/09 10:17:54;;;;;;;2.85;2.55;;;;;;;17.99;100.00;99478.16;1697376;84;21078;-76
2022/07/09 10:20:34;;;;;;;3.35;2.90;;;;;;;18.09;100.00;99487.47;1697417;84;22130;-74
2022/07/09 10:23:01;;;;;;;4.22;3.30;;;;;;;18.17;100.00;99486.23;1696058;84;20992;-77
2022/07/09 10:25:30;;;;;;;3.55;3.25;;;;;;;18.21;100.00;99493.22;1695692;84;21089;-76
2022/07/09 10:27:57;;;;;;;4.75;3.90;;;;;;;18.22;100.00;99487.45;1694886;83;21096;-80
2022/07/09 10:30:31;;;;;;;4.22;2.98;;;;;;;18.23;99.27;99496.42;1728049;83;21068;-80
2022/07/09 10:33:12;;;;;;;4.42;3.55;;;;;;;18.21;99.24;99500.03;1714656;83;21066;-76
2022/07/09 10:35:45;;;;;;;7.83;3.15;;;;;;;18.16;99.26;99502.86;1693124;84;20988;-78
2022/07/09 10:38:15;;;;;;;3.05;2.85;;;;;;;18.11;100.00;99498.33;1709461;83;33421;-79
2022/07/09 10:40:44;;;;;;;6.92;3.37;;;;;;;18.05;100.00;99503.62;1710476;83;20969;-75
2022/07/09 10:43:12;;;;;;;4.78;3.67;;;;;;;18.03;100.00;99504.49;1710595;82;21004;-78
2022/07/09 10:45:45;;;;;;;3.62;2.90;;;;;;;18.06;100.00;99505.78;1710441;83;21367;-79
2022/07/09 10:48:14;;;;;;;4.10;3.80;;;;;;;18.09;100.00;99506.53;1717945;83;21462;-80
2022/07/09 10:50:43;;;;;;;3.98;3.67;;;;;;;18.14;100.00;99506.42;1713847;83;21056;-74
2022/07/09 10:53:11;;;;;;;3.87;3.45;;;;;;;18.13;100.00;99502.12;1710998;82;21005;-78
2022/07/09 10:55:40;;;;;;;3.70;2.90;;;;;;;18.14;100.00;99519.48;1679663;84;21567;-70
2022/07/09 10:58:18;;;;;;;4.35;3.55;;;;;;;18.19;100.00;99524.02;1641498;84;21192;-68
2022/07/09 11:00:58;;;;;;;4.15;3.67;;;;;;;18.23;100.00;99525.83;1702634;83;21027;-71
2022/07/09 11:03:29;;;;;;;5.50;4.17;;;;;;;18.27;100.00;99524.09;1683238;84;21063;-75
2022/07/09 11:05:57;;;;;;;3.75;3.37;;;;;;;18.29;100.00;99524.62;1660330;85;21005;-80
2022/07/09 11:08:24;;;;;;;4.35;3.92;;;;;;;18.34;100.00;99524.25;1660204;86;21165;-78
2022/07/09 11:10:52;;;;;;;4.60;3.75;;;;;;;18.33;100.00;99518.55;1660778;85;21374;-68
2022/07/09 11:13:25;;;;;;;3.70;3.40;;;;;;;18.32;100.00;99519.69;1687360;85;22038;-68
2022/07/09 11:16:02;;;;;;;4.30;3.90;;;;;;;18.29;100.00;99516.45;1681452;85;20985;-71
2022/07/09 11:18:29;;;;;;;3.77;3.45;;;;;;;18.27;99.95;99518.66;1660094;85;21064;-70
2022/07/09 11:20:56;;;;;;;3.50;3.20;;;;;;;18.33;100.00;99527.53;1673583;85;21004;-77
2022/07/09 11:23:23;;;;;;;3.90;3.60;;;;;;;18.38;100.00;99524.70;1681064;85;21768;-71
2022/07/09 11:25:50;;;;;;;5.35;4.75;;;;;;;18.43;100.00;99531.39;1686268;84;22272;-75
2022/07/09 11:28:23;;;;;;;5.97;3.47;;;;;;;18.38;99.81;99527.97;1685781;84;20978;-77
2022/07/09 11:31:01;;;;;;;4.17;3.87;;;;;;;18.35;100.00;99529.95;1685815;84;21361;-75
2022/07/09 11:34:10;;;;;;;3.30;3.10;;;;;;;18.36;100.00;99525.58;1685751;83;20997;-75